Time;durP1;ratioP1;P1;durP2;ratioP2;P2;SDS_P1;SDS_P2;PMS_P1;PMS_P2;Temp;Humidity;BMP_temperature;BMP_pressure;BME280_temperature;BME280_humidity;BME280_pressure;Samples;Min_cycle;Max_cycle;Signal;HPM_P1;HPM_P2
2022/05/21 00:01:54;;;;;;;0.82;0.82;;;16.80;99.90;;;;;;5082256;22;20865;-51
2022/05/21 00:04:20;;;;;;;4.10;1.00;;;16.80;99.90;;;;;;5015362;28;20033;-47
2022/05/21 00:06:46;;;;;;;1.60;1.08;;;16.70;99.90;;;;;;5033065;28;20036;-44
2022/05/21 00:09:11;;;;;;;1.10;1.00;;;16.70;99.90;;;;;;5015152;28;20548;-52
2022/05/21 00:11:38;;;;;;;0.73;0.70;;;16.60;99.90;;;;;;5032819;28;20044;-54
2022/05/21 00:14:04;;;;;;;4.32;1.00;;;16.60;99.90;;;;;;5032980;28;20017;-50
2022/05/21 00:16:30;;;;;;;0.82;0.70;;;16.60;99.90;;;;;;5032659;28;20055;-45
2022/05/21 00:18:56;;;;;;;7.40;2.15;;;16.60;99.90;;;;;;5032624;28;20131;-49
2022/05/21 00:21:23;;;;;;;0.88;0.88;;;16.60;99.90;;;;;;5032809;28;20122;-47
2022/05/21 00:23:49;;;;;;;2.72;1.15;;;16.60;99.90;;;;;;5032727;28;20029;-48
2022/05/21 00:26:16;;;;;;;0.75;0.75;;;16.70;99.90;;;;;;5032642;28;20048;-47
2022/05/21 00:28:44;;;;;;;1.25;0.93;;;16.70;99.90;;;;;;5032307;28;20029;-48
2022/05/21 00:31:12;;;;;;;1.27;0.85;;;16.60;99.90;;;;;;5032826;28;20116;-51
2022/05/21 00:33:38;;;;;;;1.85;1.20;;;16.70;99.90;;;;;;5032562;28;20029;-49
2022/05/21 00:36:05;;;;;;;3.60;1.00;;;16.70;99.90;;;;;;5032516;28;20075;-51
2022/05/21 00:38:32;;;;;;;3.47;1.13;;;16.70;99.90;;;;;;5032443;28;20485;-50
2022/05/21 00:40:58;;;;;;;0.88;0.88;;;16.60;99.90;;;;;;5033203;28;20457;-44
2022/05/21 00:43:34;;;;;;;1.02;0.95;;;16.60;99.90;;;;;;5032662;28;20064;-48
2022/05/21 00:46:00;;;;;;;1.63;1.17;;;16.50;99.90;;;;;;5033287;28;20021;-43
2022/05/21 00:48:26;;;;;;;15.93;12.15;;;16.40;99.90;;;;;;5032308;28;20026;-49
2022/05/21 00:50:52;;;;;;;131.18;81.45;;;16.30;99.90;;;;;;5032215;28;20253;-48
2022/05/21 00:53:18;;;;;;;6.07;3.83;;;16.30;99.90;;;;;;5032601;28;20022;-48
2022/05/21 00:55:44;;;;;;;1.60;1.48;;;16.20;99.90;;;;;;5032533;28;20025;-47
2022/05/21 01:01:00;;;;;;;2.38;1.42;;;16.00;99.90;;;;;;5032566;28;20027;-45
2022/05/21 01:03:28;;;;;;;2.05;1.20;;;16.00;99.90;;;;;;5032134;28;20033;-50
2022/05/21 01:05:54;;;;;;;2.30;1.30;;;15.90;99.90;;;;;;5015041;28;20039;-52
2022/05/21 01:08:20;;;;;;;1.48;1.38;;;15.80;99.90;;;;;;5032115;28;20504;-49
2022/05/21 01:10:49;;;;;;;1.38;1.38;;;15.80;99.90;;;;;;5032422;28;20026;-53
2022/05/21 01:13:19;;;;;;;7.43;1.33;;;15.70;99.90;;;;;;5032159;28;20025;-50
2022/05/21 01:15:49;;;;;;;5.25;1.65;;;15.70;99.90;;;;;;5032081;28;20116;-50
2022/05/21 01:18:15;;;;;;;2.40;1.45;;;15.70;99.90;;;;;;5031682;28;20022;-50
2022/05/21 01:20:49;;;;;;;2.28;1.98;;;15.60;99.90;;;;;;5031940;28;20071;-44
2022/05/21 01:23:16;;;;;;;3.33;1.63;;;15.50;99.90;;;;;;5031963;28;20036;-50
2022/05/21 01:25:44;;;;;;;3.10;1.90;;;15.50;99.90;;;;;;5031954;28;20018;-50
2022/05/21 01:28:12;;;;;;;1.95;1.63;;;15.30;99.90;;;;;;5032309;28;20075;-50
2022/05/21 01:30:41;;;;;;;2.38;1.52;;;15.30;99.90;;;;;;5032259;28;20029;-53
2022/05/21 01:33:09;;;;;;;5.57;1.98;;;15.20;99.90;;;;;;5032122;28;20036;-50
2022/05/21 01:35:36;;;;;;;4.22;2.33;;;15.10;99.90;;;;;;5031875;28;20025;-49
2022/05/21 01:38:02;;;;;;;4.38;1.70;;;15.10;99.90;;;;;;5031643;28;20029;-48
2022/05/21 01:40:28;;;;;;;2.95;1.83;;;15.00;99.90;;;;;;5031912;28;20120;-45
2022/05/21 01:45:38;;;;;;;4.05;2.15;;;14.90;99.90;;;;;;5032013;28;20036;-47
2022/05/21 01:48:04;;;;;;;3.55;2.60;;;14.80;99.90;;;;;;5031415;28;20033;-51
2022/05/21 01:50:30;;;;;;;4.00;2.67;;;14.80;99.90;;;;;;5031616;28;20431;-48
2022/05/21 01:52:56;;;;;;;4.30;2.90;;;14.80;99.90;;;;;;5031246;28;20038;-51
2022/05/21 01:55:22;;;;;;;3.78;3.13;;;14.80;99.90;;;;;;5032107;28;20469;-44
2022/05/21 01:57:48;;;;;;;4.68;3.03;;;14.70;99.90;;;;;;5031195;28;20041;-51
2022/05/21 02:00:15;;;;;;;5.95;2.72;;;14.70;99.90;;;;;;5031771;28;20036;-48
2022/05/21 02:02:40;;;;;;;8.73;2.33;;;14.60;99.90;;;;;;5031487;28;20037;-51
2022/05/21 02:05:07;;;;;;;3.38;2.60;;;14.60;99.90;;;;;;5013917;28;20028;-52
2022/05/21 02:07:34;;;;;;;6.07;2.80;;;14.50;99.90;;;;;;5031035;28;20026;-46
2022/05/21 02:10:00;;;;;;;4.80;2.60;;;14.60;99.90;;;;;;5031424;28;20401;-48
2022/05/21 02:12:27;;;;;;;4.32;3.17;;;14.50;99.90;;;;;;5031418;28;20029;-50
2022/05/21 02:14:54;;;;;;;3.88;2.53;;;14.40;99.90;;;;;;5031589;28;20021;-53
2022/05/21 02:17:20;;;;;;;3.03;2.72;;;14.40;99.90;;;;;;5035325;28;20026;-45
2022/05/21 02:19:46;;;;;;;3.92;2.75;;;14.40;99.90;;;;;;5035388;28;20025;-47
2022/05/21 02:22:12;;;;;;;7.60;2.63;;;14.30;99.90;;;;;;5035878;28;20135;-49
2022/05/21 02:24:37;;;;;;;5.03;2.72;;;14.20;99.90;;;;;;5035775;28;20025;-46
2022/05/21 02:27:03;;;;;;;5.03;2.70;;;14.10;99.90;;;;;;5035312;28;20098;-48
2022/05/21 02:29:29;;;;;;;3.25;2.90;;;14.10;99.90;;;;;;5017567;28;20075;-48
2022/05/21 02:31:55;;;;;;;4.07;2.83;;;14.00;99.90;;;;;;5035155;28;20025;-48
2022/05/21 02:34:21;;;;;;;11.38;3.30;;;14.10;99.90;;;;;;5035007;28;20108;-47
2022/05/21 02:39:30;;;;;;;6.38;2.95;;;13.90;99.90;;;;;;5034701;28;20409;-47
2022/05/21 02:42:00;;;;;;;4.75;4.28;;;13.90;99.90;;;;;;5034741;28;20022;-50
2022/05/21 02:44:27;;;;;;;8.77;3.83;;;13.80;99.90;;;;;;5034397;28;20031;-49
2022/05/21 02:46:53;;;;;;;8.32;3.70;;;13.90;99.90;;;;;;5016372;28;20079;-42
2022/05/21 02:49:19;;;;;;;7.82;4.22;;;13.80;99.90;;;;;;5034468;28;20074;-47
2022/05/21 02:51:45;;;;;;;10.15;4.80;;;13.70;99.90;;;;;;5033939;28;20040;-48
2022/05/21 02:54:14;;;;;;;8.75;4.10;;;13.70;99.90;;;;;;5034387;28;20401;-48
2022/05/21 02:56:44;;;;;;;10.45;5.30;;;13.60;99.90;;;;;;5034272;28;20028;-47
2022/05/21 02:59:11;;;;;;;5.88;4.63;;;13.50;99.90;;;;;;5034040;28;20405;-47
2022/05/21 03:01:37;;;;;;;5.60;5.10;;;13.60;99.90;;;;;;5034121;28;20018;-49
2022/05/21 03:04:02;;;;;;;6.93;4.63;;;13.60;99.90;;;;;;5034247;28;20036;-53
2022/05/21 03:06:28;;;;;;;6.00;5.40;;;13.50;99.90;;;;;;5034089;28;20060;-49
2022/05/21 03:11:38;;;;;;;6.68;5.07;;;13.50;99.90;;;;;;5033997;28;20032;-46
2022/05/21 03:14:03;;;;;;;5.80;5.20;;;13.50;99.90;;;;;;5033982;28;20017;-47
2022/05/21 03:16:29;;;;;;;6.28;5.22;;;13.40;99.90;;;;;;5033985;28;20030;-50
2022/05/21 03:18:54;;;;;;;7.75;5.35;;;13.40;99.90;;;;;;5033538;28;20467;-48
2022/05/21 03:21:20;;;;;;;6.15;5.43;;;13.40;99.90;;;;;;5034039;28;20106;-49
2022/05/21 03:23:45;;;;;;;5.82;5.28;;;13.30;99.90;;;;;;5033975;28;20401;-51
2022/05/21 03:26:11;;;;;;;8.65;5.63;;;13.20;99.90;;;;;;5033802;28;20032;-52
2022/05/21 03:28:36;;;;;;;8.32;6.28;;;13.20;99.90;;;;;;5033515;28;20024;-48
2022/05/21 03:31:02;;;;;;;7.20;6.13;;;13.20;99.90;;;;;;5033817;28;20120;-45
2022/05/21 03:33:27;;;;;;;6.82;5.60;;;13.20;99.90;;;;;;5033631;28;20397;-46
2022/05/21 03:35:53;;;;;;;7.40;5.90;;;13.20;99.90;;;;;;5033686;28;20032;-48
2022/05/21 03:38:19;;;;;;;6.60;5.47;;;13.20;99.90;;;;;;5033342;28;20096;-48
2022/05/21 03:40:44;;;;;;;8.00;6.07;;;13.10;99.90;;;;;;5033493;28;20029;-51
2022/05/21 03:43:10;;;;;;;8.75;6.63;;;13.10;99.90;;;;;;5033457;28;20025;-42
2022/05/21 03:45:36;;;;;;;6.50;5.80;;;13.10;99.90;;;;;;5033517;28;20033;-47
2022/05/21 03:48:03;;;;;;;8.73;5.82;;;13.20;99.90;;;;;;5033083;28;20026;-47
2022/05/21 03:50:31;;;;;;;6.40;5.80;;;13.20;99.90;;;;;;5033453;28;20117;-47
2022/05/21 03:52:57;;;;;;;12.05;6.85;;;13.20;99.90;;;;;;5032720;28;20022;-44
2022/05/21 03:55:22;;;;;;;10.85;6.03;;;13.20;99.90;;;;;;5033395;28;20091;-46
2022/05/21 03:57:48;;;;;;;10.15;6.53;;;13.20;99.90;;;;;;5033026;28;20104;-47
2022/05/21 04:00:16;;;;;;;8.38;5.40;;;13.30;99.90;;;;;;5033195;28;20030;-49
2022/05/21 04:02:41;;;;;;;6.25;5.30;;;13.30;99.90;;;;;;5033224;28;20397;-43
2022/05/21 04:05:08;;;;;;;11.45;6.22;;;13.30;99.90;;;;;;5033304;28;20040;-42
2022/05/21 04:07:34;;;;;;;8.52;4.85;;;13.40;99.90;;;;;;5032751;28;20352;-50
2022/05/21 04:10:00;;;;;;;13.70;5.65;;;13.40;99.90;;;;;;5033121;28;20104;-47
2022/05/21 04:12:25;;;;;;;10.60;5.70;;;13.30;99.90;;;;;;5033572;28;20083;-47
2022/05/21 04:14:51;;;;;;;6.90;5.00;;;13.30;99.90;;;;;;5033022;28;20030;-46
2022/05/21 04:17:16;;;;;;;9.77;5.40;;;13.40;99.90;;;;;;5033089;28;20065;-47
2022/05/21 04:19:42;;;;;;;7.00;4.82;;;13.30;99.90;;;;;;5033385;28;20108;-51
2022/05/21 04:22:09;;;;;;;5.88;4.72;;;13.30;99.90;;;;;;5033288;28;20485;-48
2022/05/21 04:24:34;;;;;;;6.72;4.85;;;13.30;99.90;;;;;;5033131;28;20101;-44
2022/05/21 04:27:00;;;;;;;5.60;4.63;;;13.30;99.90;;;;;;5004963;28;20121;-47
2022/05/21 04:29:26;;;;;;;13.40;4.65;;;13.40;99.90;;;;;;5033104;28;20037;-47
2022/05/21 04:31:52;;;;;;;5.13;4.45;;;13.30;99.90;;;;;;5032720;28;20091;-46
2022/05/21 04:34:17;;;;;;;5.28;4.75;;;13.40;99.90;;;;;;5032199;28;20052;-46
2022/05/21 04:36:43;;;;;;;5.65;4.22;;;13.40;99.90;;;;;;5014642;28;20060;-44
2022/05/21 04:39:09;;;;;;;4.05;3.75;;;13.50;99.90;;;;;;5031737;28;20064;-46
2022/05/21 04:41:35;;;;;;;4.15;3.67;;;13.70;99.90;;;;;;5032038;28;20035;-50
2022/05/21 04:44:02;;;;;;;8.73;4.30;;;13.70;99.90;;;;;;5032076;28;20109;-48
2022/05/21 04:46:29;;;;;;;5.72;4.20;;;14.00;99.90;;;;;;5032269;28;20072;-47
2022/05/21 04:48:55;;;;;;;5.45;3.78;;;14.30;99.90;;;;;;5031887;28;20041;-41
2022/05/21 04:51:20;;;;;;;5.10;3.72;;;15.00;99.90;;;;;;5031870;28;20036;-49
2022/05/21 04:53:46;;;;;;;5.03;3.33;;;15.80;99.90;;;;;;5032229;28;20030;-50
2022/05/21 04:56:12;;;;;;;2.92;2.70;;;16.60;99.90;;;;;;5031768;28;20513;-50
2022/05/21 04:58:38;;;;;;;2.90;2.70;;;17.50;99.90;;;;;;5031383;28;20049;-45
2022/05/21 05:01:04;;;;;;;5.15;2.85;;;18.40;99.90;;;;;;5031007;28;20030;-48
2022/05/21 05:03:31;;;;;;;3.53;3.17;;;19.00;99.90;;;;;;5031398;28;20524;-53
2022/05/21 05:05:56;;;;;;;3.63;2.75;;;19.70;98.70;;;;;;5011005;28;20030;-48
2022/05/21 05:08:23;;;;;;;3.95;3.25;;;20.30;97.50;;;;;;5012328;28;20030;-46
2022/05/21 05:10:49;;;;;;;3.50;2.75;;;20.60;97.30;;;;;;4995643;28;20429;-45
2022/05/21 05:13:16;;;;;;;4.03;2.72;;;21.10;96.00;;;;;;5031759;28;20030;-48
2022/05/21 05:15:44;;;;;;;2.97;2.55;;;21.70;95.20;;;;;;5031759;28;20438;-50
2022/05/21 05:18:12;;;;;;;3.15;2.15;;;22.10;94.20;;;;;;5031300;28;20022;-50
2022/05/21 05:20:38;;;;;;;2.47;2.30;;;22.30;94.00;;;;;;5031762;28;20033;-43
2022/05/21 05:23:05;;;;;;;4.03;2.00;;;22.60;93.30;;;;;;5031594;28;20489;-48
2022/05/21 05:25:31;;;;;;;2.75;1.92;;;23.10;92.80;;;;;;5013943;28;20030;-46
2022/05/21 05:27:57;;;;;;;2.28;2.03;;;24.00;91.90;;;;;;5031825;28;20022;-50
2022/05/21 05:30:24;;;;;;;3.15;2.17;;;23.50;91.30;;;;;;5032344;28;20465;-46
2022/05/21 05:32:49;;;;;;;3.42;1.95;;;23.40;91.00;;;;;;5031333;28;20108;-52
2022/05/21 05:35:16;;;;;;;1.83;1.73;;;23.30;91.00;;;;;;5030776;28;20103;-47
2022/05/21 05:37:42;;;;;;;4.35;1.48;;;23.30;90.90;;;;;;5031264;28;20103;-53
2022/05/21 05:40:19;;;;;;;4.20;1.95;;;23.60;90.90;;;;;;5031571;28;20469;-47
2022/05/21 05:42:44;;;;;;;3.25;1.33;;;23.80;90.00;;;;;;5031331;28;20505;-49
2022/05/21 05:45:12;;;;;;;1.67;1.58;;;24.20;88.30;;;;;;5031573;28;20145;-46
2022/05/21 05:47:37;;;;;;;1.13;1.02;;;24.60;88.40;;;;;;5031082;28;20396;-44
2022/05/21 05:50:04;;;;;;;1.58;1.42;;;25.40;86.00;;;;;;5031310;28;20117;-48
2022/05/21 05:52:29;;;;;;;2.03;1.23;;;25.90;83.00;;;;;;5035084;28;20022;-47
2022/05/21 05:54:55;;;;;;;1.50;1.15;;;26.30;81.50;;;;;;5035324;28;20044;-48
2022/05/21 05:57:21;;;;;;;2.47;1.10;;;26.30;81.80;;;;;;5035319;28;20029;-52
2022/05/21 05:59:50;;;;;;;4.15;1.45;;;26.50;78.90;;;;;;5034627;28;20409;-48
2022/05/21 06:05:02;;;;;;;3.40;1.20;;;25.70;79.60;;;;;;5049887;28;20075;-50
2022/05/21 06:07:28;;;;;;;2.25;1.40;;;25.00;81.10;;;;;;5053994;28;20095;-47
2022/05/21 06:10:05;;;;;;;1.58;0.70;;;24.80;80.80;;;;;;5055024;28;20029;-45
2022/05/21 06:12:31;;;;;;;5.60;1.00;;;24.50;81.50;;;;;;5055283;28;20052;-47
2022/05/21 06:14:57;;;;;;;2.47;0.90;;;24.00;80.40;;;;;;5054954;28;20419;-46
2022/05/21 06:17:23;;;;;;;4.85;0.85;;;23.10;83.10;;;;;;5054482;28;20083;-49
2022/05/21 06:19:48;;;;;;;4.80;1.52;;;22.70;84.40;;;;;;5053576;28;20489;-49
2022/05/21 06:22:14;;;;;;;7.72;1.02;;;22.50;84.70;;;;;;5057481;28;20029;-48
2022/05/21 06:24:40;;;;;;;3.13;0.82;;;22.80;85.10;;;;;;5054278;28;20538;-46
2022/05/21 06:27:06;;;;;;;3.33;1.13;;;23.30;84.40;;;;;;5053990;28;20086;-45
2022/05/21 06:29:32;;;;;;;3.03;1.30;;;23.80;82.00;;;;;;5053959;28;20428;-45
2022/05/21 06:31:57;;;;;;;2.55;0.82;;;23.30;81.80;;;;;;5054205;28;20021;-47
2022/05/21 06:34:24;;;;;;;1.38;0.68;;;22.80;83.40;;;;;;5053787;28;20497;-45
2022/05/21 06:36:50;;;;;;;1.05;0.88;;;22.40;84.70;;;;;;5054237;28;20155;-45
2022/05/21 06:39:15;;;;;;;2.50;1.00;;;22.50;85.70;;;;;;5049534;28;20514;-49
2022/05/21 06:41:41;;;;;;;2.95;1.23;;;22.80;84.80;;;;;;5049976;28;20030;-49
2022/05/21 06:44:09;;;;;;;3.95;1.25;;;22.90;83.90;;;;;;5034637;28;20112;-47
2022/05/21 06:46:35;;;;;;;2.90;1.00;;;23.50;83.50;;;;;;5034370;28;20036;-51
2022/05/21 06:49:00;;;;;;;3.30;0.95;;;24.20;81.40;;;;;;5059802;28;21234;-47
2022/05/21 06:51:26;;;;;;;3.28;1.00;;;24.60;80.20;;;;;;5053830;28;20024;-48
2022/05/21 06:53:51;;;;;;;4.63;0.88;;;24.70;79.20;;;;;;5055821;28;20045;-50
2022/05/21 06:56:18;;;;;;;2.35;1.10;;;24.40;79.50;;;;;;5056751;28;20036;-46
2022/05/21 06:58:44;;;;;;;3.95;0.98;;;24.20;81.10;;;;;;5056503;28;20033;-49
2022/05/21 07:01:10;;;;;;;2.97;0.80;;;24.40;80.70;;;;;;5055967;28;20149;-48
2022/05/21 07:03:36;;;;;;;3.60;1.10;;;24.60;80.50;;;;;;5056609;28;20055;-48
2022/05/21 07:08:47;;;;;;;5.05;0.80;;;25.80;77.30;;;;;;5057144;28;20456;-47
2022/05/21 07:11:13;;;;;;;3.70;1.02;;;26.00;75.90;;;;;;5056816;28;20029;-49
2022/05/21 07:13:39;;;;;;;5.07;1.10;;;26.00;75.30;;;;;;5056994;28;20036;-49
2022/05/21 07:16:05;;;;;;;7.75;1.17;;;26.00;75.50;;;;;;5056574;28;20028;-46
2022/05/21 07:18:31;;;;;;;4.65;0.85;;;25.70;75.00;;;;;;5056103;28;20020;-45
2022/05/21 07:20:56;;;;;;;3.70;1.10;;;25.60;74.70;;;;;;5056687;28;20024;-46
2022/05/21 07:23:26;;;;;;;6.90;0.98;;;25.60;75.00;;;;;;5053792;28;20025;-49
2022/05/21 07:25:53;;;;;;;4.38;1.00;;;25.50;75.70;;;;;;5053988;28;20055;-49
2022/05/21 07:28:18;;;;;;;1.75;0.90;;;25.90;75.40;;;;;;5054944;28;20083;-44
2022/05/21 07:30:45;;;;;;;4.93;1.10;;;26.50;74.30;;;;;;5036249;28;20448;-43
2022/05/21 07:33:13;;;;;;;2.30;0.93;;;27.10;73.60;;;;;;5054168;28;20021;-45
2022/05/21 07:35:40;;;;;;;3.47;0.90;;;27.60;72.60;;;;;;5054389;28;20028;-43
2022/05/21 07:38:07;;;;;;;6.25;0.98;;;27.50;70.70;;;;;;5053989;28;20044;-44
2022/05/21 07:40:33;;;;;;;4.88;1.30;;;27.40;70.40;;;;;;5054176;28;20029;-42
2022/05/21 07:42:59;;;;;;;2.70;0.90;;;27.00;71.10;;;;;;5056814;28;20052;-44
2022/05/21 07:45:25;;;;;;;3.17;0.88;;;26.50;72.40;;;;;;5049272;28;20029;-43
2022/05/21 07:47:50;;;;;;;3.35;1.00;;;26.30;71.80;;;;;;5037482;28;20021;-47
2022/05/21 07:50:18;;;;;;;3.13;1.30;;;26.20;72.50;;;;;;5037920;28;20028;-43
2022/05/21 07:52:44;;;;;;;2.25;1.08;;;26.20;71.70;;;;;;5038071;28;20091;-45
2022/05/21 07:55:10;;;;;;;3.60;0.90;;;26.70;71.90;;;;;;5037476;28;20033;-45
2022/05/21 07:57:36;;;;;;;3.15;1.00;;;26.70;72.10;;;;;;5037627;28;20112;-44
2022/05/21 08:00:05;;;;;;;4.53;0.93;;;26.70;70.60;;;;;;5037861;28;20045;-47
2022/05/21 08:02:30;;;;;;;2.25;0.93;;;26.70;72.20;;;;;;5050092;28;20028;-50
2022/05/21 08:04:56;;;;;;;1.85;0.80;;;26.90;72.00;;;;;;5057910;28;20086;-48
2022/05/21 08:07:22;;;;;;;2.30;0.70;;;27.40;70.70;;;;;;5057020;28;20404;-46
2022/05/21 08:09:48;;;;;;;4.45;1.00;;;27.60;69.50;;;;;;5056922;28;20071;-43
2022/05/21 08:12:14;;;;;;;5.40;1.25;;;27.80;69.80;;;;;;5062378;28;20036;-46
2022/05/21 08:14:41;;;;;;;6.35;1.00;;;28.00;69.20;;;;;;5060195;28;20024;-43
2022/05/21 08:17:07;;;;;;;1.80;1.00;;;27.20;70.40;;;;;;5054748;28;20032;-48
2022/05/21 08:19:33;;;;;;;5.88;1.10;;;25.70;70.80;;;;;;5052423;28;20052;-48
2022/05/21 08:26:56;;;;;;;2.40;1.00;;;24.30;74.40;;;;;;5055192;28;20071;-45
2022/05/21 08:27:28;;;;;;;3.13;1.33;;;22.20;79.60;;;;;;5037986;28;20623;-43
2022/05/21 08:29:54;;;;;;;3.25;0.95;;;21.20;81.90;;;;;;5038661;28;20044;-43
2022/05/21 08:32:19;;;;;;;3.88;1.00;;;20.60;84.40;;;;;;5035986;28;20047;-46
2022/05/21 08:34:45;;;;;;;1.67;1.25;;;20.30;87.20;;;;;;5018671;28;20120;-42
2022/05/21 08:37:11;;;;;;;62.35;43.03;;;19.90;87.50;;;;;;5049707;28;20108;-43
2022/05/21 08:39:37;;;;;;;7.18;2.65;;;19.70;88.00;;;;;;5058522;28;20089;-44
2022/05/21 08:42:34;;;;;;;4.68;1.70;;;19.90;88.90;;;;;;5060610;28;20035;-50
2022/05/21 08:45:21;;;;;;;1.38;0.88;;;19.90;89.50;;;;;;5055887;28;20040;-44
2022/05/21 08:48:02;;;;;;;3.13;1.10;;;19.90;90.00;;;;;;5053807;28;20028;-47
2022/05/21 08:50:32;;;;;;;3.33;1.27;;;20.10;89.90;;;;;;5054486;28;20082;-45
2022/05/21 08:53:11;;;;;;;2.95;0.90;;;20.60;88.90;;;;;;5054500;28;20029;-44
2022/05/21 08:55:45;;;;;;;4.45;1.08;;;20.60;88.40;;;;;;5053888;28;20029;-44
2022/05/21 08:58:34;;;;;;;1.92;1.00;;;20.40;89.40;;;;;;5049923;28;20535;-44
2022/05/21 09:01:00;;;;;;;2.13;0.98;;;20.20;89.00;;;;;;5054133;28;20485;-41
2022/05/21 09:03:28;;;;;;;3.80;1.10;;;20.60;88.60;;;;;;5053553;28;20051;-46
2022/05/21 09:06:12;;;;;;;3.90;1.10;;;21.20;88.20;;;;;;5054851;28;20396;-46
2022/05/21 09:09:05;;;;;;;3.80;1.25;;;21.40;86.20;;;;;;5051091;28;20029;-46
2022/05/21 09:11:46;;;;;;;8.95;1.15;;;21.30;86.70;;;;;;5051566;28;20032;-46
2022/05/21 09:14:35;;;;;;;3.30;0.80;;;21.60;84.40;;;;;;5052476;28;20075;-46
2022/05/21 09:17:02;;;;;;;3.75;0.98;;;21.70;83.50;;;;;;5052244;28;20025;-44
2022/05/21 09:19:34;;;;;;;1.73;0.90;;;21.90;83.40;;;;;;5052207;28;20033;-47
2022/05/21 09:22:10;;;;;;;3.83;1.05;;;22.20;83.90;;;;;;5051901;28;20021;-47
2022/05/21 09:24:42;;;;;;;4.97;1.08;;;22.20;83.20;;;;;;5051585;28;20032;-48
2022/05/21 09:27:26;;;;;;;2.65;1.05;;;22.30;84.30;;;;;;5051261;28;20064;-47
2022/05/21 09:30:08;;;;;;;4.20;1.63;;;22.40;82.70;;;;;;5031853;28;20191;-47
2022/05/21 09:32:35;;;;;;;4.07;1.40;;;22.50;83.10;;;;;;5031376;28;20033;-46
2022/05/21 09:35:06;;;;;;;5.10;1.33;;;22.20;82.70;;;;;;5032037;28;20189;-43
2022/05/21 09:37:31;;;;;;;4.13;1.58;;;22.30;84.40;;;;;;5041960;28;20031;-45
2022/05/21 09:39:57;;;;;;;6.50;1.70;;;22.40;84.40;;;;;;5051894;28;20029;-46
2022/05/21 09:45:22;;;;;;;3.55;1.65;;;22.50;82.50;;;;;;5059959;28;20455;-47
2022/05/21 09:48:08;;;;;;;10.52;1.50;;;22.50;83.00;;;;;;5054217;28;20063;-49
2022/05/21 09:50:50;;;;;;;5.28;1.35;;;21.90;81.20;;;;;;5026991;28;20037;-48
2022/05/21 09:53:37;;;;;;;8.13;1.63;;;21.60;82.40;;;;;;5058094;28;20021;-57
2022/05/21 09:56:22;;;;;;;4.00;2.03;;;21.20;82.50;;;;;;5057904;28;20078;-46
2022/05/21 09:59:06;;;;;;;6.38;3.40;;;21.00;84.50;;;;;;5057002;28;20028;-50
2022/05/21 10:01:37;;;;;;;8.10;2.67;;;20.90;83.50;;;;;;5056493;28;20443;-48
2022/05/21 10:04:33;;;;;;;2.58;1.23;;;20.90;85.10;;;;;;5056279;28;20060;-52
2022/05/21 10:13:04;;;;;;;4.18;1.58;;;20.70;87.10;;;;;;5057541;28;20059;-53
2022/05/21 10:15:35;;;;;;;4.13;1.35;;;20.70;85.70;;;;;;5056930;28;20083;-48
2022/05/21 10:18:07;;;;;;;2.30;1.23;;;20.80;84.70;;;;;;5056611;28;20056;-49
2022/05/21 10:20:35;;;;;;;5.30;1.30;;;20.90;83.00;;;;;;5038357;28;20029;-49
2022/05/21 10:23:26;;;;;;;4.35;1.20;;;21.00;84.20;;;;;;5057074;28;20017;-54
2022/05/21 10:26:25;;;;;;;4.03;1.73;;;21.00;83.30;;;;;;5056611;28;20199;-50
2022/05/21 10:28:57;;;;;;;4.50;2.28;;;21.10;83.50;;;;;;5037727;28;20036;-54
2022/05/21 10:31:39;;;;;;;4.82;1.35;;;21.30;85.60;;;;;;5056856;28;20027;-49
2022/05/21 10:34:13;;;;;;;4.65;1.83;;;21.40;83.80;;;;;;5039113;28;20028;-47
2022/05/21 10:37:16;;;;;;;2.22;1.35;;;21.10;83.60;;;;;;5040502;28;20031;-47
2022/05/21 10:40:18;;;;;;;2.90;1.35;;;20.90;84.60;;;;;;5059820;28;20147;-52
2022/05/21 10:43:09;;;;;;;2.45;1.08;;;20.90;83.90;;;;;;5037584;28;20168;-50
2022/05/21 10:45:44;;;;;;;2.78;0.90;;;20.90;83.80;;;;;;5060755;28;20056;-49
2022/05/21 10:48:29;;;;;;;2.25;1.13;;;20.90;81.60;;;;;;5060019;28;20040;-47
2022/05/21 10:51:17;;;;;;;6.75;1.40;;;20.80;82.40;;;;;;5059823;28;20508;-49
2022/05/21 10:54:02;;;;;;;5.10;1.40;;;20.90;82.20;;;;;;5059512;28;20568;-45
2022/05/21 10:56:36;;;;;;;2.10;1.10;;;20.90;84.00;;;;;;5059635;28;20029;-47
2022/05/21 10:59:44;;;;;;;5.90;1.60;;;21.00;83.60;;;;;;5061093;28;20591;-48
2022/05/21 11:02:30;;;;;;;5.22;1.50;;;20.80;83.90;;;;;;5061424;28;20266;-46
2022/05/21 11:05:17;;;;;;;3.55;1.40;;;20.80;85.20;;;;;;5061916;28;20066;-49
2022/05/21 11:08:01;;;;;;;4.88;1.20;;;20.80;83.40;;;;;;5062469;28;20021;-46
2022/05/21 11:10:51;;;;;;;4.28;1.15;;;20.80;84.00;;;;;;5062874;28;20373;-47
2022/05/21 11:13:21;;;;;;;2.97;1.77;;;21.00;85.30;;;;;;5061549;28;20035;-46
2022/05/21 11:15:56;;;;;;;2.47;1.23;;;21.10;84.50;;;;;;5061371;28;20481;-49
2022/05/21 11:19:15;;;;;;;2.58;1.35;;;21.00;84.10;;;;;;5060904;28;20033;-46
2022/05/21 11:21:48;;;;;;;3.67;1.20;;;21.10;82.80;;;;;;4999977;28;20062;-48
2022/05/21 11:24:18;;;;;;;2.63;1.02;;;20.90;80.60;;;;;;5033198;28;20566;-50
2022/05/21 11:26:59;;;;;;;4.95;1.35;;;20.90;82.40;;;;;;5061486;28;20033;-48
2022/05/21 11:29:45;;;;;;;4.00;1.45;;;21.00;83.50;;;;;;5043966;28;20025;-46
2022/05/21 11:38:26;;;;;;;2.72;1.08;;;21.10;80.10;;;;;;5061426;28;20063;-52
2022/05/21 11:41:24;;;;;;;1.75;0.95;;;21.10;79.70;;;;;;5061097;28;20550;-47
2022/05/21 11:43:51;;;;;;;5.10;1.33;;;21.00;79.20;;;;;;5060352;28;20036;-50
2022/05/21 11:46:17;;;;;;;1.55;0.98;;;21.10;80.20;;;;;;5060323;28;20055;-52
2022/05/21 11:48:43;;;;;;;3.63;1.20;;;21.10;79.60;;;;;;5059063;28;20025;-52
2022/05/21 11:51:17;;;;;;;2.45;1.02;;;21.20;79.10;;;;;;5060640;28;20036;-50
2022/05/21 11:53:44;;;;;;;1.83;1.10;;;21.10;79.70;;;;;;5059974;28;20021;-50
2022/05/21 11:56:12;;;;;;;15.05;10.77;;;21.00;81.40;;;;;;5060036;28;20400;-53
2022/05/21 11:59:13;;;;;;;3.17;1.00;;;20.90;79.70;;;;;;5059323;28;20017;-49
2022/05/21 12:01:41;;;;;;;3.42;1.13;;;20.90;78.00;;;;;;5059166;28;20040;-51
2022/05/21 12:04:35;;;;;;;1.38;0.80;;;20.90;77.70;;;;;;5058370;28;20441;-43
2022/05/21 12:07:02;;;;;;;3.05;1.10;;;20.90;79.40;;;;;;5058008;28;20396;-51
2022/05/21 12:09:34;;;;;;;4.10;1.88;;;20.90;80.50;;;;;;5039900;28;20492;-48
2022/05/21 12:12:21;;;;;;;5.18;1.30;;;20.90;79.30;;;;;;5058952;28;20032;-55
2022/05/21 12:15:16;;;;;;;2.92;1.38;;;20.80;78.40;;;;;;5040438;28;20025;-52
2022/05/21 12:18:03;;;;;;;2.35;1.10;;;20.70;78.90;;;;;;5057309;28;20025;-51
2022/05/21 12:20:48;;;;;;;7.43;1.52;;;20.80;79.20;;;;;;5057707;28;20029;-50
2022/05/21 12:23:26;;;;;;;3.13;1.55;;;20.90;80.70;;;;;;5058180;28;20577;-52
2022/05/21 12:26:05;;;;;;;2.35;1.00;;;20.90;80.00;;;;;;5058533;28;20025;-48
2022/05/21 12:28:34;;;;;;;5.00;1.38;;;21.10;79.00;;;;;;5057578;28;20025;-49
2022/05/21 12:31:04;;;;;;;5.63;1.33;;;21.10;78.30;;;;;;5041450;28;20404;-47
2022/05/21 12:34:04;;;;;;;2.95;1.08;;;21.00;78.20;;;;;;5059212;28;20028;-47
2022/05/21 12:36:46;;;;;;;2.83;1.20;;;21.00;77.70;;;;;;5060805;28;20029;-48
2022/05/21 12:39:16;;;;;;;2.05;0.85;;;21.00;77.80;;;;;;5060279;28;20398;-50
2022/05/21 12:41:47;;;;;;;1.88;0.93;;;21.00;79.10;;;;;;5061141;28;20025;-51
2022/05/21 12:44:40;;;;;;;3.30;0.80;;;21.10;79.50;;;;;;5062401;28;20396;-50
2022/05/21 12:47:10;;;;;;;0.85;0.70;;;21.20;78.90;;;;;;5061245;28;20017;-47
2022/05/21 12:49:44;;;;;;;4.85;1.30;;;21.20;77.00;;;;;;5062144;28;20060;-53
2022/05/21 12:52:10;;;;;;;2.03;0.80;;;21.20;77.70;;;;;;5060550;28;20052;-48
2022/05/21 12:54:35;;;;;;;2.88;0.80;;;21.20;77.20;;;;;;5058588;28;20025;-48
2022/05/21 12:57:12;;;;;;;3.08;1.00;;;21.10;76.40;;;;;;5057650;28;20060;-51
2022/05/21 12:59:39;;;;;;;6.43;1.58;;;21.20;77.50;;;;;;5058662;28;20079;-47
2022/05/21 13:02:12;;;;;;;1.95;1.25;;;21.20;77.10;;;;;;5058138;28;20021;-47
2022/05/21 13:04:41;;;;;;;2.53;1.20;;;21.20;74.70;;;;;;5057510;28;20029;-47
2022/05/21 13:07:18;;;;;;;5.13;1.20;;;21.20;75.90;;;;;;5057320;28;20021;-50
2022/05/21 13:10:01;;;;;;;3.13;1.05;;;21.20;76.00;;;;;;5057569;28;20040;-49
2022/05/21 13:12:37;;;;;;;4.05;1.50;;;21.30;76.20;;;;;;5057955;28;20029;-53
2022/05/21 13:15:03;;;;;;;1.25;1.08;;;21.30;77.60;;;;;;5057978;28;20523;-47
2022/05/21 13:17:42;;;;;;;2.47;1.00;;;21.50;77.90;;;;;;5057902;28;20394;-48
2022/05/21 13:20:16;;;;;;;2.58;1.00;;;21.70;76.20;;;;;;5057224;28;20033;-47
2022/05/21 13:23:05;;;;;;;3.80;1.45;;;21.90;76.80;;;;;;5057643;28;20017;-48
2022/05/21 13:25:31;;;;;;;2.60;0.88;;;21.80;75.70;;;;;;5057515;28;20017;-46
2022/05/21 13:27:57;;;;;;;7.90;2.25;;;21.90;76.00;;;;;;5038892;28;20036;-47
2022/05/21 13:30:32;;;;;;;2.08;1.20;;;21.80;76.60;;;;;;5056949;28;20104;-48
2022/05/21 13:33:01;;;;;;;2.30;0.98;;;21.80;75.20;;;;;;5057381;28;20489;-51
2022/05/21 13:35:32;;;;;;;3.30;1.30;;;21.80;76.20;;;;;;5038945;28;20408;-45
2022/05/21 13:37:59;;;;;;;1.67;1.10;;;21.90;75.10;;;;;;5056919;28;20491;-51